Airfield :
LOGIN :

Register | Disclaimer

   EN    FR    IT 

 










Legend :    VFR   Marginal VFR   IFR   Intensive IFR   Very Intensive IFR
Visi :
Ceiling :
>= 8 km
>= 3000ft
5 to 8 km
1000 to 3000 ft
1500m to 5 km
500 to 1000 ft
800 to 1500m
200 to 500 ft
< 800m
< 200 ft
Symbols :   Thunderstorms  Fog  Heavy snow  Heavy precipitations  Wind > 20 kt
SIGMETs :     Misc.  Thunderstorms  Icing  Turbulence  Mountain Waves  Volcanic Ashes







- Airport Elevation : 170 ft
- IATA code : KRP


EKKA - Karup

CURRENT METAR :
  • 191250Z AUTO 19006KT 180V260 9999NDV -RA BKN030/// 19/17 Q1015

EXPIRED METARs :
  • 191220Z AUTO 23008KT 180V260 9999NDV -RA BKN030/// 20/17 Q1015
  • 191150Z AUTO 23008KT 180V260 9999NDV -RA FEW019/// BKN033/// 20/17 Q1015
  • 191120Z AUTO 25010KT 180V260 9999NDV BKN021/// 21/17 Q1015
  • 191050Z AUTO 25009KT 180V270 9999NDV BKN019/// BKN064/// 21/17 Q1016
  • 191020Z AUTO 23008KT 180V260 9999NDV BKN017/// BKN064/// BKN130/// 21/17 Q1016

TAF TAF EKKA
Valid from the 19 at 12:00 until the 20 at 12:00 UTC


191123Z 1912/2012 22008KT 9999 BKN025
TEMPO 1912/1918 4000 -RADZ BKN010
TEMPO 1918/2003 2800 RA BKN004 SCT020CB
BECMG 2000/2003 28008KT
TEMPO 2003/2005 3000 BR BKN008
TEMPO 2008/2012 29012G22KT
No reported NOTAMs for that airfield.



MET'MAP, your aeronautical weather chart ! - Copyright ORBIFLY December 2007 - Disclaimer

ORBIFLY MET'MAP TEAM :

Programming & Development : Alexandra Zaïnal
Concept & Development : Baudouin d'Aumeries
Co-Development & Prog : Marc-Olivier Méhu
Technical & hardware support : Manuel Goepfert

Contact : metmap@orbifly.com




SOURCES & CREDITS :

   NOAA